createdAt,value
2023-04-20T00:00:32.572Z,98453.34
2023-04-20T00:03:01.900Z,98460.59
2023-04-20T00:05:32.097Z,98447.16
2023-04-20T00:08:01.280Z,98450.00
2023-04-20T00:10:29.832Z,98457.03
2023-04-20T00:12:58.270Z,98441.78
2023-04-20T00:15:28.021Z,98448.97
2023-04-20T00:17:56.499Z,98438.41
2023-04-20T00:20:25.012Z,98441.09
2023-04-20T00:22:53.351Z,98436.56
2023-04-20T00:25:21.975Z,98440.06
2023-04-20T00:27:50.431Z,98441.94
2023-04-20T00:30:18.827Z,98442.75
2023-04-20T00:32:48.568Z,98441.09
2023-04-20T00:35:17.013Z,98435.72
2023-04-20T00:37:45.423Z,98433.03
2023-04-20T00:40:13.999Z,98427.66
2023-04-20T00:42:42.452Z,98427.66
2023-04-20T00:45:11.702Z,98427.66
2023-04-20T00:47:40.214Z,98433.03
2023-04-20T00:50:11.998Z,98424.16
2023-04-20T00:52:40.859Z,98421.44
2023-04-20T00:55:10.196Z,98427.66
2023-04-20T00:57:38.575Z,98423.28
2023-04-20T01:00:11.526Z,98424.16
2023-04-20T01:02:39.992Z,98424.31
2023-04-20T01:05:10.468Z,98415.56
2023-04-20T01:07:38.794Z,98418.25
2023-04-20T01:10:09.290Z,98417.44
2023-04-20T01:12:37.688Z,98416.59
2023-04-20T01:15:07.332Z,98410.38
2023-04-20T01:17:36.769Z,98411.22
2023-04-20T01:20:07.970Z,98406.69
2023-04-20T01:22:46.032Z,98413.06
2023-04-20T01:25:14.783Z,98413.91
2023-04-20T01:27:43.186Z,98419.28
2023-04-20T01:30:12.512Z,98414.75
2023-04-20T01:32:41.085Z,98415.56
2023-04-20T01:35:10.527Z,98405.00
2023-04-20T01:37:39.201Z,98413.06
2023-04-20T01:40:11.080Z,98411.38
2023-04-20T01:42:39.439Z,98418.44
2023-04-20T01:45:09.101Z,98409.56
2023-04-20T01:47:38.036Z,98415.91
2023-04-20T01:50:07.351Z,98411.38
2023-04-20T01:52:35.835Z,98411.38
2023-04-20T01:55:04.326Z,98415.91
2023-04-20T01:57:34.049Z,98426.69
2023-04-20T02:00:02.553Z,98419.63
2023-04-20T02:02:31.012Z,98427.50
2023-04-20T02:04:59.415Z,98429.38
2023-04-20T02:07:27.812Z,98429.38
2023-04-20T02:09:56.183Z,98425.84
2023-04-20T02:12:24.593Z,98430.38
2023-04-20T02:14:54.272Z,98425.00
2023-04-20T02:17:22.728Z,98422.31
2023-04-20T02:19:51.167Z,98427.69
2023-04-20T02:22:19.603Z,98416.94
2023-04-20T02:24:47.974Z,98424.19
2023-04-20T02:27:16.267Z,98423.31
2023-04-20T02:29:44.631Z,98423.31
2023-04-20T02:32:14.393Z,98423.31
2023-04-20T02:34:42.828Z,98422.50
2023-04-20T02:37:11.167Z,98423.31
2023-04-20T02:39:39.554Z,98424.34
2023-04-20T02:42:07.974Z,98420.63
2023-04-20T02:44:36.382Z,98412.56
2023-04-20T02:47:04.759Z,98407.19
2023-04-20T02:49:34.678Z,98412.56
2023-04-20T02:52:03.034Z,98423.31
2023-04-20T02:54:31.396Z,98422.50
2023-04-20T02:56:59.858Z,98423.50
2023-04-20T02:59:28.189Z,98419.78
2023-04-20T03:01:56.634Z,98423.31
2023-04-20T03:04:26.014Z,98428.69
2023-04-20T03:06:55.985Z,98430.56
2023-04-20T03:09:24.669Z,98426.00
2023-04-20T03:11:53.104Z,98422.50
2023-04-20T03:14:21.526Z,98421.66
2023-04-20T03:16:49.951Z,98420.00
2023-04-20T03:19:18.530Z,98418.97
2023-04-20T03:21:47.029Z,98427.03
2023-04-20T03:24:16.969Z,98425.38
2023-04-20T03:26:45.344Z,98428.88
2023-04-20T03:29:13.687Z,98429.72
2023-04-20T03:31:42.140Z,98438.81
2023-04-20T03:34:10.744Z,98437.09
2023-04-20T03:36:39.088Z,98441.50
2023-04-20T03:39:07.699Z,98434.41
2023-04-20T03:41:37.418Z,98442.31
2023-04-20T03:44:07.080Z,98440.63
2023-04-20T03:46:36.463Z,98445.16
2023-04-20T03:49:04.900Z,98450.53
2023-04-20T03:51:33.341Z,98447.84
2023-04-20T03:54:01.703Z,98457.63
2023-04-20T03:56:30.095Z,98451.38
2023-04-20T03:58:59.892Z,98447.84
2023-04-20T04:01:28.705Z,98439.78
2023-04-20T04:03:57.332Z,98453.22
2023-04-20T04:06:26.951Z,98461.28
2023-04-20T04:08:55.596Z,98448.88
2023-04-20T04:11:25.512Z,98447.84
2023-04-20T04:13:53.888Z,98449.03
2023-04-20T04:16:23.685Z,98455.09
2023-04-20T04:18:52.087Z,98446.19
2023-04-20T04:21:21.082Z,98450.53
2023-04-20T04:23:49.993Z,98455.91
2023-04-20T04:26:21.502Z,98454.25
2023-04-20T04:28:49.865Z,98450.72
2023-04-20T04:31:19.537Z,98460.47
2023-04-20T04:33:49.847Z,98453.22
2023-04-20T04:36:18.275Z,98457.09
2023-04-20T04:38:46.650Z,98451.56
2023-04-20T04:41:15.302Z,98461.47
2023-04-20T04:43:43.714Z,98457.09
2023-04-20T04:46:12.550Z,98461.28
2023-04-20T04:48:42.451Z,98467.84
2023-04-20T04:51:12.256Z,98468.69
2023-04-20T04:53:45.095Z,98467.84
2023-04-20T04:56:14.404Z,98470.53
2023-04-20T04:58:42.812Z,98477.41
2023-04-20T05:01:11.218Z,98471.22
2023-04-20T05:03:39.944Z,98466.88
2023-04-20T05:06:08.872Z,98471.38
2023-04-20T05:08:38.581Z,98478.59
2023-04-20T05:11:07.139Z,98471.56
2023-04-20T05:13:35.567Z,98472.41
2023-04-20T05:16:04.147Z,98480.28
2023-04-20T05:18:32.544Z,98473.38
2023-04-20T05:21:00.939Z,98482.44
2023-04-20T05:23:29.464Z,98481.25
2023-04-20T05:25:59.279Z,98483.31
2023-04-20T05:28:27.972Z,98476.91
2023-04-20T05:30:56.336Z,98483.31
2023-04-20T05:33:24.734Z,98486.16
2023-04-20T05:35:56.581Z,98482.44
2023-04-20T05:38:24.992Z,98484.81
2023-04-20T05:40:53.378Z,98482.28
2023-04-20T05:43:23.141Z,98484.16
2023-04-20T05:45:51.547Z,98495.72
2023-04-20T05:48:20.139Z,98496.41
2023-04-20T05:50:48.489Z,98495.25
2023-04-20T05:53:16.904Z,98497.25
2023-04-20T05:55:45.400Z,98491.19
2023-04-20T05:58:13.796Z,98504.63
2023-04-20T06:00:43.564Z,98503.81
2023-04-20T06:03:12.220Z,98502.16
2023-04-20T06:05:43.814Z,98510.69
2023-04-20T06:08:12.757Z,98510.00
2023-04-20T06:10:41.423Z,98513.53
2023-04-20T06:13:09.904Z,98510.34
2023-04-20T06:15:38.488Z,98514.69
2023-04-20T06:18:08.291Z,98514.06
2023-04-20T06:20:36.731Z,98512.19
2023-04-20T06:23:05.125Z,98510.50
2023-04-20T06:25:33.468Z,98511.38
2023-04-20T06:28:01.888Z,98520.06
2023-04-20T06:30:30.512Z,98517.56
2023-04-20T06:32:58.976Z,98525.44
2023-04-20T06:35:28.957Z,98518.06
2023-04-20T06:37:57.826Z,98520.06
2023-04-20T06:40:28.401Z,98521.75
2023-04-20T06:42:56.818Z,98525.13
2023-04-20T06:45:25.281Z,98519.41
2023-04-20T06:47:53.841Z,98518.72
2023-04-20T06:50:22.488Z,98521.56
2023-04-20T06:52:52.285Z,98523.44
2023-04-20T06:55:21.120Z,98523.44
2023-04-20T06:57:49.524Z,98528.81
2023-04-20T07:00:19.290Z,98528.81
2023-04-20T07:02:49.163Z,98532.84
2023-04-20T07:05:17.766Z,98526.44
2023-04-20T07:07:46.880Z,98522.09
2023-04-20T07:10:16.902Z,98531.50
2023-04-20T07:12:45.558Z,98531.69
2023-04-20T07:15:14.159Z,98527.63
2023-04-20T07:17:42.633Z,98528.28
2023-04-20T07:20:11.673Z,98531.13
2023-04-20T07:22:40.355Z,98530.47
2023-04-20T07:25:09.992Z,98533.47
2023-04-20T07:27:41.722Z,98532.84
2023-04-20T07:30:11.334Z,98539.19
2023-04-20T07:32:40.926Z,98540.91
2023-04-20T07:35:10.535Z,98534.66
2023-04-20T07:37:39.042Z,98533.81
2023-04-20T07:40:09.406Z,98529.13
2023-04-20T07:42:39.306Z,98537.88
2023-04-20T07:45:09.079Z,98535.34
2023-04-20T07:47:37.659Z,98534.34
2023-04-20T07:50:07.290Z,98550.47
2023-04-20T07:52:35.813Z,98532.50
2023-04-20T07:55:04.269Z,98532.28
2023-04-20T07:57:33.082Z,98535.19
2023-04-20T08:00:04.502Z,98532.66
2023-04-20T08:02:33.750Z,98528.97
2023-04-20T08:05:04.025Z,98528.09
2023-04-20T08:07:32.616Z,98530.78
2023-04-20T08:10:03.132Z,98529.13
2023-04-20T08:12:31.637Z,98533.47
2023-04-20T08:15:02.010Z,98524.59
2023-04-20T08:17:31.751Z,98528.09
2023-04-20T08:20:00.228Z,98520.03
2023-04-20T08:22:30.402Z,98527.28
2023-04-20T08:24:59.006Z,98532.66
2023-04-20T08:27:29.682Z,98531.66
2023-04-20T08:29:58.144Z,98537.19
2023-04-20T08:32:27.093Z,98537.03
2023-04-20T08:34:57.019Z,98543.91
2023-04-20T08:37:26.004Z,98531.66
2023-04-20T08:39:54.872Z,98527.94
2023-04-20T08:42:23.316Z,98535.66
2023-04-20T08:44:51.715Z,98536.50
2023-04-20T08:47:20.048Z,98532.97
2023-04-20T08:49:48.472Z,98526.63
2023-04-20T08:52:18.167Z,98527.16
2023-04-20T08:54:56.137Z,98529.31
2023-04-20T08:57:25.913Z,98533.19
2023-04-20T08:59:54.518Z,98536.34
2023-04-20T09:02:23.401Z,98531.81
2023-04-20T09:05:02.043Z,98524.41
2023-04-20T09:07:31.896Z,98523.41
2023-04-20T09:10:01.306Z,98528.63
2023-04-20T09:12:29.839Z,98524.91
2023-04-20T09:14:58.297Z,98530.78
2023-04-20T09:17:34.312Z,98522.41
2023-04-20T09:20:02.737Z,98532.28
2023-04-20T09:22:32.983Z,98526.09
2023-04-20T09:25:01.736Z,98527.78
2023-04-20T09:27:30.099Z,98526.75
2023-04-20T09:29:59.738Z,98523.06
2023-04-20T09:32:29.407Z,98525.75
2023-04-20T09:34:58.052Z,98529.28
2023-04-20T09:37:26.759Z,98532.63
2023-04-20T09:39:59.986Z,98529.78
2023-04-20T09:42:29.614Z,98527.09
2023-04-20T09:44:57.984Z,98524.19
2023-04-20T09:47:27.462Z,98527.56
2023-04-20T09:49:57.239Z,98518.53
2023-04-20T09:52:25.766Z,98517.56
2023-04-20T09:54:54.187Z,98522.22
2023-04-20T09:57:23.979Z,98515.50
2023-04-20T09:59:53.379Z,98511.78
2023-04-20T10:02:22.050Z,98511.63
2023-04-20T10:04:55.505Z,98516.69
2023-04-20T10:07:27.765Z,98512.13
2023-04-20T10:10:10.198Z,98509.09
2023-04-20T10:13:01.979Z,98512.47
2023-04-20T10:15:38.295Z,98508.75
2023-04-20T10:18:20.506Z,98512.25
2023-04-20T10:20:49.073Z,98512.25
2023-04-20T10:23:19.560Z,98508.25
2023-04-20T10:25:57.897Z,98499.84
2023-04-20T10:28:27.738Z,98496.81
2023-04-20T10:30:56.381Z,98499.13
2023-04-20T10:33:24.813Z,98501.19
2023-04-20T10:35:55.153Z,98500.16
2023-04-20T10:38:33.009Z,98491.44
2023-04-20T10:41:08.373Z,98496.13
2023-04-20T10:43:39.240Z,98489.09
2023-04-20T10:46:16.357Z,98494.31
2023-04-20T10:48:53.111Z,98497.31
2023-04-20T10:51:21.622Z,98498.19
2023-04-20T10:54:01.026Z,98500.00
2023-04-20T10:56:29.401Z,98496.50
2023-04-20T10:59:08.131Z,98496.69
2023-04-20T11:01:36.645Z,98491.47
2023-04-20T11:04:05.258Z,98497.69
2023-04-20T11:06:33.734Z,98486.09
2023-04-20T11:09:02.219Z,98494.00
2023-04-20T11:11:30.612Z,98486.91
2023-04-20T11:14:10.640Z,98489.44
2023-04-20T11:19:10.518Z,98484.06
2023-04-20T11:21:39.520Z,98485.06
2023-04-20T11:24:19.095Z,98489.59
2023-04-20T11:26:49.904Z,98485.94
2023-04-20T11:29:34.169Z,98480.72
2023-04-20T11:32:05.628Z,98487.94
2023-04-20T11:34:34.309Z,98486.09
2023-04-20T11:37:06.213Z,98487.13
2023-04-20T11:39:34.852Z,98478.22
2023-04-20T11:42:03.361Z,98490.63
2023-04-20T11:44:33.167Z,98489.81
2023-04-20T11:47:01.988Z,98489.81
2023-04-20T11:49:30.974Z,98482.56
2023-04-20T11:51:59.387Z,98481.75
2023-04-20T11:54:29.746Z,98479.06
2023-04-20T11:56:59.076Z,98477.88
2023-04-20T11:59:27.514Z,98479.06
2023-04-20T12:01:57.325Z,98484.44
2023-04-20T12:04:26.133Z,98479.88
2023-04-20T12:06:54.831Z,98479.06
2023-04-20T12:09:23.419Z,98477.34
2023-04-20T12:11:51.806Z,98481.75
2023-04-20T12:14:20.237Z,98486.09
2023-04-20T12:16:48.982Z,98478.69
2023-04-20T12:19:18.971Z,98480.91
2023-04-20T12:21:48.457Z,98475.34
2023-04-20T12:24:17.327Z,98472.66
2023-04-20T12:26:46.033Z,98478.22
2023-04-20T12:29:14.825Z,98476.34
2023-04-20T12:31:43.909Z,98473.66
2023-04-20T12:34:13.649Z,98473.66
2023-04-20T12:36:43.540Z,98476.53
2023-04-20T12:39:12.145Z,98484.22
2023-04-20T12:41:42.134Z,98476.34
2023-04-20T12:44:11.511Z,98476.34
2023-04-20T12:46:40.103Z,98473.66
2023-04-20T12:49:08.688Z,98462.91
2023-04-20T12:51:37.086Z,98472.66
2023-04-20T12:54:06.909Z,98464.78
2023-04-20T12:56:35.391Z,98466.59
2023-04-20T12:59:04.192Z,98463.91
2023-04-20T13:01:32.729Z,98465.59
2023-04-20T13:04:01.575Z,98462.09
2023-04-20T13:06:30.205Z,98464.78
2023-04-20T13:08:58.641Z,98463.91
2023-04-20T13:11:28.386Z,98452.16
2023-04-20T13:13:58.163Z,98454.84
2023-04-20T13:16:29.306Z,98457.53
2023-04-20T13:18:57.856Z,98449.47
2023-04-20T13:21:26.289Z,98454.84
2023-04-20T13:23:55.504Z,98454.19
2023-04-20T13:26:25.449Z,98458.53
2023-04-20T13:28:57.587Z,98450.47
2023-04-20T13:31:26.118Z,98450.47
2023-04-20T13:33:55.696Z,98459.41
2023-04-20T13:36:24.419Z,98455.84
2023-04-20T13:38:53.639Z,98444.25
2023-04-20T13:41:23.633Z,98446.13
2023-04-20T13:43:52.053Z,98441.56
2023-04-20T13:46:21.846Z,98434.34
2023-04-20T13:48:50.309Z,98436.88
2023-04-20T13:51:18.745Z,98435.22
2023-04-20T13:53:48.747Z,98448.81
2023-04-20T13:56:17.370Z,98440.75
2023-04-20T13:58:46.191Z,98440.75
2023-04-20T14:01:15.464Z,98438.88
2023-04-20T14:03:46.251Z,98437.03
2023-04-20T14:06:15.078Z,98440.75
2023-04-20T14:08:43.566Z,98446.13
2023-04-20T14:11:11.945Z,98440.75
2023-04-20T14:13:41.227Z,98431.03
2023-04-20T14:16:11.095Z,98429.16
2023-04-20T14:18:39.728Z,98432.69
2023-04-20T14:21:09.552Z,98439.91
2023-04-20T14:23:37.954Z,98432.69
2023-04-20T14:26:06.573Z,98426.28
2023-04-20T14:28:35.538Z,98430.16
2023-04-20T14:31:04.035Z,98434.34
2023-04-20T14:33:32.457Z,98440.75
2023-04-20T14:36:00.954Z,98426.47
2023-04-20T14:38:30.757Z,98440.91
2023-04-20T14:41:00.165Z,98431.03
2023-04-20T14:43:28.573Z,98427.47
2023-04-20T14:45:58.814Z,98429.31
2023-04-20T14:48:27.339Z,98427.97
2023-04-20T14:50:55.699Z,98423.75
2023-04-20T14:53:24.279Z,98426.78
2023-04-20T14:55:54.028Z,98416.38
2023-04-20T14:58:22.444Z,98426.47
2023-04-20T15:00:51.049Z,98442.41
2023-04-20T15:03:19.796Z,98433.19
2023-04-20T15:05:48.478Z,98439.41
2023-04-20T15:08:17.032Z,98442.41
2023-04-20T15:10:45.398Z,98431.03
2023-04-20T15:13:15.206Z,98431.50
2023-04-20T15:15:48.947Z,98441.06
2023-04-20T15:18:18.621Z,98432.16
2023-04-20T15:20:46.975Z,98438.69
2023-04-20T15:23:15.381Z,98440.34
2023-04-20T15:25:43.953Z,98429.59
2023-04-20T15:28:12.626Z,98424.56
2023-04-20T15:30:42.512Z,98430.78
2023-04-20T15:33:10.956Z,98434.50
2023-04-20T15:35:39.570Z,98435.16
2023-04-20T15:38:07.931Z,98431.81
2023-04-20T15:40:36.331Z,98433.31
2023-04-20T15:43:04.721Z,98427.56
2023-04-20T15:45:33.175Z,98430.06
2023-04-20T15:48:03.039Z,98428.41
2023-04-20T15:50:32.324Z,98428.59
2023-04-20T15:53:00.899Z,98426.25
2023-04-20T15:55:34.329Z,98430.44
2023-04-20T15:58:02.880Z,98437.50
2023-04-20T16:00:31.537Z,98433.31
2023-04-20T16:03:01.802Z,98424.22
2023-04-20T16:05:32.878Z,98430.94
2023-04-20T16:08:01.420Z,98430.06
2023-04-20T16:10:30.069Z,98438.34
2023-04-20T16:12:58.470Z,98434.97
2023-04-20T16:15:26.862Z,98430.44
2023-04-20T16:17:55.325Z,98424.22
2023-04-20T16:20:23.935Z,98436.84
2023-04-20T16:22:53.723Z,98431.28
2023-04-20T16:25:24.161Z,98429.59
2023-04-20T16:27:52.640Z,98437.97
2023-04-20T16:30:21.203Z,98445.88
2023-04-20T16:32:49.761Z,98440.50
2023-04-20T16:35:18.284Z,98436.00
2023-04-20T16:37:47.106Z,98440.53
2023-04-20T16:40:16.962Z,98441.72
2023-04-20T16:42:45.357Z,98446.44
2023-04-20T16:45:13.796Z,98441.06
2023-04-20T16:47:42.235Z,98434.84
2023-04-20T16:50:12.560Z,98445.78
2023-04-20T16:52:40.990Z,98445.78
2023-04-20T16:55:10.669Z,98453.84
2023-04-20T16:57:41.271Z,98445.41
2023-04-20T17:00:11.604Z,98456.34
2023-04-20T17:02:40.206Z,98447.44
2023-04-20T17:05:09.700Z,98451.16
2023-04-20T17:07:38.082Z,98449.13
2023-04-20T17:10:07.662Z,98453.47
2023-04-20T17:12:36.063Z,98454.50
2023-04-20T17:15:07.192Z,98452.28
2023-04-20T17:17:35.603Z,98447.75
2023-04-20T17:20:06.499Z,98447.59
2023-04-20T17:22:35.368Z,98454.81
2023-04-20T17:25:06.556Z,98454.16
2023-04-20T17:27:36.047Z,98454.81
2023-04-20T17:30:07.232Z,98451.56
2023-04-20T17:32:35.597Z,98449.09
2023-04-20T17:35:04.433Z,98452.81
2023-04-20T17:37:32.866Z,98456.47
2023-04-20T17:40:01.519Z,98457.66
2023-04-20T17:42:29.957Z,98447.59
2023-04-20T17:44:58.404Z,98463.56
2023-04-20T17:47:28.587Z,98467.44
2023-04-20T17:49:57.176Z,98462.88
2023-04-20T17:52:25.589Z,98459.38
2023-04-20T17:54:54.693Z,98458.50
2023-04-20T17:57:23.178Z,98463.03
2023-04-20T17:59:51.869Z,98464.75
2023-04-20T18:02:20.355Z,98453.31
2023-04-20T18:04:50.348Z,98454.81
2023-04-20T18:07:18.880Z,98463.88
2023-04-20T18:09:47.324Z,98456.47
2023-04-20T18:12:15.785Z,98457.50
2023-04-20T18:14:44.234Z,98461.03
2023-04-20T18:17:12.620Z,98466.88
2023-04-20T18:19:41.375Z,98464.38
2023-04-20T18:22:11.138Z,98471.44
2023-04-20T18:24:39.572Z,98467.91
2023-04-20T18:27:07.979Z,98468.06
2023-04-20T18:29:36.420Z,98468.25
2023-04-20T18:32:05.110Z,98480.00
2023-04-20T18:34:33.516Z,98471.31
2023-04-20T18:37:01.901Z,98470.28
2023-04-20T18:39:31.716Z,98464.06
2023-04-20T18:42:00.117Z,98468.41
2023-04-20T18:44:29.275Z,98470.44
2023-04-20T18:46:57.836Z,98464.22
2023-04-20T18:49:26.323Z,98465.94
2023-04-20T18:51:54.865Z,98472.13
2023-04-20T18:54:23.256Z,98471.31
2023-04-20T18:56:54.791Z,98464.75
2023-04-20T18:59:24.748Z,98465.56
2023-04-20T19:01:53.201Z,98463.88
2023-04-20T19:04:21.877Z,98460.19
2023-04-20T19:06:50.502Z,98469.91
2023-04-20T19:09:18.935Z,98471.94
2023-04-20T19:11:47.291Z,98473.63
2023-04-20T19:14:17.443Z,98470.28
2023-04-20T19:16:46.031Z,98468.25
2023-04-20T19:19:14.496Z,98469.25
2023-04-20T19:21:42.989Z,98473.44
2023-04-20T19:24:11.401Z,98471.78
2023-04-20T19:26:39.838Z,98464.53
2023-04-20T19:29:08.289Z,98467.22
2023-04-20T19:31:40.159Z,98465.22
2023-04-20T19:34:08.718Z,98468.56
2023-04-20T19:36:37.250Z,98462.53
2023-04-20T19:39:07.180Z,98467.06
2023-04-20T19:41:36.584Z,98464.53
2023-04-20T19:44:06.568Z,98463.56
2023-04-20T19:46:35.074Z,98472.81
2023-04-20T19:49:04.891Z,98467.59
2023-04-20T19:51:33.377Z,98470.28
2023-04-20T19:54:03.589Z,98466.75
2023-04-20T19:56:32.183Z,98470.28
2023-04-20T19:59:00.702Z,98462.22
2023-04-20T20:01:29.191Z,98466.75
2023-04-20T20:03:57.938Z,98467.59
2023-04-20T20:06:28.516Z,98473.78
2023-04-20T20:08:57.105Z,98469.44
2023-04-20T20:11:25.815Z,98464.91
2023-04-20T20:13:54.265Z,98456.84
2023-04-20T20:16:22.745Z,98461.38
2023-04-20T20:18:51.465Z,98464.91
2023-04-20T20:21:19.940Z,98465.56
2023-04-20T20:23:49.762Z,98460.88
2023-04-20T20:26:18.152Z,98458.50
2023-04-20T20:28:46.929Z,98459.16
2023-04-20T20:31:15.626Z,98448.59
2023-04-20T20:33:44.051Z,98464.91
2023-04-20T20:36:12.521Z,98459.53
2023-04-20T20:38:41.312Z,98462.22
2023-04-20T20:41:13.662Z,98456.84
2023-04-20T20:43:42.698Z,98461.38
2023-04-20T20:46:11.194Z,98443.56
2023-04-20T20:48:39.627Z,98454.31
2023-04-20T20:51:08.081Z,98463.25
2023-04-20T20:53:36.524Z,98464.22
2023-04-20T20:56:05.102Z,98458.84
2023-04-20T20:58:34.881Z,98458.84
2023-04-20T21:01:03.238Z,98458.84
2023-04-20T21:03:31.903Z,98463.41
2023-04-20T21:06:00.519Z,98460.53
2023-04-20T21:08:28.917Z,98460.72
2023-04-20T21:10:57.415Z,98453.47
2023-04-20T21:13:25.900Z,98462.56
2023-04-20T21:15:55.747Z,98461.72
2023-04-20T21:18:24.227Z,98465.25
2023-04-20T21:20:52.623Z,98460.88
2023-04-20T21:23:21.093Z,98464.41
2023-04-20T21:25:49.426Z,98460.88
2023-04-20T21:28:17.915Z,98467.94
2023-04-20T21:30:46.304Z,98461.91
2023-04-20T21:33:16.218Z,98464.22
2023-04-20T21:35:44.735Z,98466.25
2023-04-20T21:38:13.273Z,98475.19
2023-04-20T21:40:41.786Z,98474.97
2023-04-20T21:43:10.165Z,98474.97
2023-04-20T21:45:38.654Z,98467.13
2023-04-20T21:48:07.679Z,98473.31
2023-04-20T21:50:38.093Z,98467.94
2023-04-20T21:53:06.590Z,98467.28
2023-04-20T21:55:35.043Z,98464.59
2023-04-20T21:58:03.565Z,98470.78
2023-04-20T22:00:32.035Z,98475.34
2023-04-20T22:03:00.626Z,98468.28
2023-04-20T22:05:29.446Z,98462.91
2023-04-20T22:07:59.167Z,98479.88
2023-04-20T22:10:27.711Z,98472.66
2023-04-20T22:12:56.159Z,98473.66
2023-04-20T22:15:26.260Z,98458.53
2023-04-20T22:17:54.828Z,98471.97
2023-04-20T22:20:23.266Z,98467.47
2023-04-20T22:22:51.722Z,98463.91
2023-04-20T22:25:21.460Z,98466.59
2023-04-20T22:27:49.817Z,98468.28
2023-04-20T22:30:18.340Z,98460.41
2023-04-20T22:32:46.803Z,98459.56
2023-04-20T22:35:15.186Z,98462.25
2023-04-20T22:37:43.617Z,98464.94
2023-04-20T22:40:13.438Z,98466.78
2023-04-20T22:42:43.298Z,98473.00
2023-04-20T22:45:12.680Z,98471.16
2023-04-20T22:47:41.583Z,98474.03
2023-04-20T22:50:12.326Z,98472.16
2023-04-20T22:52:40.711Z,98473.00
2023-04-20T22:55:10.678Z,98473.00
2023-04-20T22:57:39.696Z,98469.47
2023-04-20T23:00:13.524Z,98460.41
2023-04-20T23:02:42.216Z,98462.41
2023-04-20T23:05:11.443Z,98461.59
2023-04-20T23:07:40.359Z,98466.94
2023-04-20T23:10:11.836Z,98465.97
2023-04-20T23:12:40.214Z,98463.28
2023-04-20T23:15:11.600Z,98465.09
2023-04-20T23:17:40.034Z,98473.16
2023-04-20T23:20:13.898Z,98466.94
2023-04-20T23:22:42.534Z,98473.34
2023-04-20T23:25:11.371Z,98464.25
2023-04-20T23:27:39.753Z,98472.31
2023-04-20T23:30:11.264Z,98464.47
2023-04-20T23:32:39.944Z,98465.28
2023-04-20T23:35:10.256Z,98465.28
2023-04-20T23:37:38.670Z,98459.91
2023-04-20T23:40:10.198Z,98452.84
2023-04-20T23:42:38.543Z,98455.53
2023-04-20T23:45:09.942Z,98450.16
2023-04-20T23:47:38.347Z,98454.69
2023-04-20T23:50:08.620Z,98447.47
2023-04-20T23:52:37.148Z,98446.63
2023-04-20T23:55:06.536Z,98444.78
2023-04-20T23:57:34.937Z,98442.97
